createdAt,value
2018-09-20T00:02:23.966Z,18.80
2018-09-20T00:04:56.207Z,18.80
2018-09-20T00:07:27.197Z,18.80
2018-09-20T00:09:59.418Z,18.90
2018-09-20T00:12:29.786Z,18.80
2018-09-20T00:15:03.007Z,18.70
2018-09-20T00:17:34.029Z,18.60
2018-09-20T00:20:07.963Z,18.60
2018-09-20T00:22:39.124Z,18.60
2018-09-20T00:25:11.213Z,18.60
2018-09-20T00:27:50.812Z,18.60
2018-09-20T00:30:22.723Z,18.60
2018-09-20T00:32:54.873Z,18.50
2018-09-20T00:35:34.195Z,18.50
2018-09-20T00:38:05.916Z,18.50
2018-09-20T00:40:45.691Z,18.50
2018-09-20T00:43:17.220Z,18.50
2018-09-20T00:45:49.420Z,18.50
2018-09-20T00:48:20.651Z,18.50
2018-09-20T00:50:52.763Z,18.50
2018-09-20T00:53:31.855Z,18.50
2018-09-20T00:56:03.161Z,18.50
2018-09-20T00:58:43.271Z,18.50
2018-09-20T01:01:14.442Z,18.50
2018-09-20T01:03:53.745Z,18.40
2018-09-20T01:06:33.159Z,18.40
2018-09-20T01:09:05.470Z,18.40
2018-09-20T01:11:44.828Z,18.40
2018-09-20T01:14:20.060Z,18.40
2018-09-20T01:16:58.598Z,18.50
2018-09-20T01:19:37.657Z,18.40
2018-09-20T01:22:09.821Z,18.50
2018-09-20T01:24:41.157Z,18.50
2018-09-20T01:27:17.727Z,18.50
2018-09-20T01:29:48.847Z,18.40
2018-09-20T01:32:19.927Z,18.30
2018-09-20T01:34:51.897Z,18.30
2018-09-20T01:37:23.297Z,18.30
2018-09-20T01:40:03.005Z,18.30
2018-09-20T01:42:35.415Z,18.20
2018-09-20T01:45:06.770Z,18.20
2018-09-20T01:47:39.114Z,18.20
2018-09-20T01:50:11.341Z,18.20
2018-09-20T01:52:50.809Z,18.20
2018-09-20T01:55:22.340Z,18.20
2018-09-20T01:57:54.239Z,18.10
2018-09-20T02:00:31.170Z,18.10
2018-09-20T02:03:02.730Z,18.20
2018-09-20T02:05:33.198Z,18.20
2018-09-20T02:08:04.594Z,18.20
2018-09-20T02:10:44.018Z,18.20
2018-09-20T02:13:14.487Z,18.20
2018-09-20T02:15:47.604Z,18.20
2018-09-20T02:18:19.864Z,18.20
2018-09-20T02:20:52.579Z,18.20
2018-09-20T02:23:25.125Z,18.20
2018-09-20T02:25:58.016Z,18.20
2018-09-20T02:28:37.392Z,18.10
2018-09-20T02:31:16.732Z,18.10
2018-09-20T02:33:48.504Z,18.10
2018-09-20T02:36:21.286Z,18.10
2018-09-20T02:38:57.855Z,18.10
2018-09-20T02:41:28.764Z,18.10
2018-09-20T02:44:03.606Z,18.10
2018-09-20T02:46:35.294Z,18.10
2018-09-20T02:49:14.494Z,18.10
2018-09-20T02:51:50.864Z,18.00
2018-09-20T02:54:22.992Z,18.00
2018-09-20T02:57:02.379Z,18.00
2018-09-20T02:59:34.430Z,18.00
2018-09-20T03:02:06.040Z,18.00
2018-09-20T03:04:46.541Z,18.00
2018-09-20T03:07:18.040Z,18.00
2018-09-20T03:09:58.712Z,18.00
2018-09-20T03:12:38.253Z,18.00
2018-09-20T03:15:09.713Z,18.00
2018-09-20T03:17:50.827Z,18.00
2018-09-20T03:20:22.408Z,18.00
2018-09-20T03:23:02.156Z,17.90
2018-09-20T03:25:38.136Z,17.90
2018-09-20T03:28:09.494Z,17.90
2018-09-20T03:30:48.965Z,17.90
2018-09-20T03:33:20.683Z,17.80
2018-09-20T03:35:54.443Z,17.80
2018-09-20T03:38:31.723Z,17.80
2018-09-20T03:41:03.584Z,17.70
2018-09-20T03:43:34.894Z,17.70
2018-09-20T03:46:14.337Z,17.70
2018-09-20T03:48:45.474Z,17.70
2018-09-20T03:51:25.038Z,17.70
2018-09-20T03:53:58.787Z,17.60
2018-09-20T03:56:38.421Z,17.50
2018-09-20T03:59:10.088Z,17.50
2018-09-20T04:01:44.619Z,17.50
2018-09-20T04:04:16.199Z,17.50
2018-09-20T04:06:47.829Z,17.40
2018-09-20T04:09:27.502Z,17.40
2018-09-20T04:12:07.852Z,17.40
2018-09-20T04:14:40.836Z,17.50
2018-09-20T04:17:20.573Z,17.40
2018-09-20T04:19:52.263Z,17.40
2018-09-20T04:22:27.509Z,17.40
2018-09-20T04:24:58.598Z,17.40
2018-09-20T04:27:30.059Z,17.40
2018-09-20T04:30:10.693Z,17.50
2018-09-20T04:32:46.623Z,17.50
2018-09-20T04:35:25.653Z,17.60
2018-09-20T04:37:57.503Z,17.60
2018-09-20T04:40:29.282Z,17.60
2018-09-20T04:43:01.143Z,17.50
2018-09-20T04:45:40.357Z,17.50
2018-09-20T04:48:10.706Z,17.50
2018-09-20T04:50:40.775Z,17.50
2018-09-20T04:53:20.365Z,17.40
2018-09-20T04:55:52.207Z,17.40
2018-09-20T04:58:32.565Z,17.40
2018-09-20T05:01:04.419Z,17.40
2018-09-20T05:03:36.525Z,17.30
2018-09-20T05:06:16.085Z,17.40
2018-09-20T05:08:47.496Z,17.40
2018-09-20T05:11:28.036Z,17.40
2018-09-20T05:13:59.887Z,17.40
2018-09-20T05:16:31.816Z,17.40
2018-09-20T05:19:03.369Z,17.40
2018-09-20T05:21:43.739Z,17.40
2018-09-20T05:24:15.188Z,17.50
2018-09-20T05:26:46.209Z,17.50
2018-09-20T05:29:25.784Z,17.50
2018-09-20T05:32:04.825Z,17.50
2018-09-20T05:34:38.072Z,17.60
2018-09-20T05:37:10.062Z,17.60
2018-09-20T05:39:41.932Z,17.60
2018-09-20T05:42:12.273Z,17.60
2018-09-20T05:44:44.830Z,17.60
2018-09-20T05:47:16.633Z,17.60
2018-09-20T05:49:47.352Z,17.60
2018-09-20T05:52:19.223Z,17.60
2018-09-20T05:54:51.062Z,17.70
2018-09-20T05:57:22.234Z,17.80
2018-09-20T05:59:58.744Z,17.80
2018-09-20T06:02:38.296Z,17.70
2018-09-20T06:05:10.198Z,17.80
2018-09-20T06:07:41.765Z,17.80
2018-09-20T06:10:15.018Z,17.80
2018-09-20T06:12:46.767Z,17.90
2018-09-20T06:15:26.408Z,17.90
2018-09-20T06:17:57.632Z,18.00
2018-09-20T06:20:36.889Z,18.00
2018-09-20T06:23:16.467Z,18.10
2018-09-20T06:25:55.960Z,18.30
2018-09-20T06:28:27.572Z,18.60
2018-09-20T06:31:00.356Z,18.80
2018-09-20T06:33:30.967Z,18.90
2018-09-20T06:36:03.247Z,18.90
2018-09-20T06:38:34.656Z,18.90
2018-09-20T06:41:07.389Z,18.90
2018-09-20T06:43:39.766Z,18.90
2018-09-20T06:46:11.896Z,18.90
2018-09-20T06:48:42.966Z,19.00
2018-09-20T06:51:15.656Z,19.00
2018-09-20T06:53:46.576Z,19.10
2018-09-20T06:56:17.900Z,19.10
2018-09-20T06:58:48.487Z,19.10
2018-09-20T07:01:19.216Z,19.10
2018-09-20T07:03:49.819Z,19.20
2018-09-20T07:06:20.348Z,19.20
2018-09-20T07:08:50.998Z,19.30
2018-09-20T07:11:22.441Z,19.40
2018-09-20T07:13:53.817Z,19.50
2018-09-20T07:16:24.946Z,19.60
2018-09-20T07:18:56.577Z,19.50
2018-09-20T07:21:27.256Z,19.60
2018-09-20T07:23:58.416Z,19.60
2018-09-20T07:26:29.787Z,19.60
2018-09-20T07:29:01.756Z,19.60
2018-09-20T07:31:32.166Z,19.60
2018-09-20T07:34:03.296Z,19.60
2018-09-20T07:36:34.807Z,19.70
2018-09-20T07:39:10.421Z,19.70
2018-09-20T07:41:41.649Z,19.70
2018-09-20T07:44:12.366Z,19.80
2018-09-20T07:46:51.568Z,19.90
2018-09-20T07:49:22.730Z,19.90
2018-09-20T07:52:00.391Z,20.00
2018-09-20T07:54:34.594Z,20.00
2018-09-20T07:57:05.284Z,20.10
2018-09-20T07:59:43.035Z,20.20
2018-09-20T08:02:19.964Z,20.30
2018-09-20T08:04:51.254Z,20.40
2018-09-20T08:07:21.884Z,20.40
2018-09-20T08:09:52.944Z,20.40
2018-09-20T08:12:24.123Z,20.40
2018-09-20T08:14:55.756Z,20.40
2018-09-20T08:17:27.624Z,20.40
2018-09-20T08:19:58.154Z,20.40
2018-09-20T08:22:30.053Z,20.40
2018-09-20T08:25:01.464Z,20.50
2018-09-20T08:27:32.333Z,20.70
2018-09-20T08:30:03.413Z,20.80
2018-09-20T08:32:34.370Z,20.80
2018-09-20T08:35:05.814Z,20.90
2018-09-20T08:37:36.048Z,21.00
2018-09-20T08:40:08.992Z,21.00
2018-09-20T08:42:40.573Z,21.10
2018-09-20T08:45:12.135Z,21.10
2018-09-20T08:47:52.301Z,21.10
2018-09-20T08:50:31.687Z,21.20
2018-09-20T08:53:11.442Z,21.20
2018-09-20T08:55:51.245Z,21.30
2018-09-20T08:58:33.362Z,21.30
2018-09-20T09:01:12.899Z,21.30
2018-09-20T09:03:52.265Z,21.30
2018-09-20T09:06:48.933Z,21.40
2018-09-20T09:09:32.985Z,21.40
2018-09-20T09:12:08.635Z,21.50
2018-09-20T09:14:47.976Z,21.60
2018-09-20T09:17:23.957Z,21.70
2018-09-20T09:19:58.960Z,21.80
2018-09-20T09:22:35.104Z,21.80
2018-09-20T09:25:10.929Z,22.00
2018-09-20T09:27:47.304Z,22.20
2018-09-20T09:30:23.382Z,22.40
2018-09-20T09:33:03.568Z,22.70
2018-09-20T09:35:43.300Z,23.00
2018-09-20T09:38:22.884Z,23.30
2018-09-20T09:41:02.516Z,23.70
2018-09-20T09:43:43.203Z,23.90
2018-09-20T09:46:23.596Z,24.20
2018-09-20T09:49:03.585Z,24.50
2018-09-20T09:51:43.424Z,24.70
2018-09-20T09:54:23.264Z,24.80
2018-09-20T09:57:02.420Z,25.10
2018-09-20T09:59:43.074Z,25.20
2018-09-20T10:02:22.715Z,25.30
2018-09-20T10:05:00.005Z,25.40
2018-09-20T10:07:39.815Z,25.50
2018-09-20T10:10:19.363Z,25.60
2018-09-20T10:12:58.985Z,25.70
2018-09-20T10:15:38.772Z,25.80
2018-09-20T10:18:17.575Z,25.90
2018-09-20T10:20:57.061Z,25.90
2018-09-20T10:23:36.972Z,26.00
2018-09-20T10:26:14.641Z,26.10
2018-09-20T10:28:53.969Z,26.20
2018-09-20T10:31:34.385Z,26.20
2018-09-20T10:34:14.156Z,26.20
2018-09-20T10:36:53.946Z,26.30
2018-09-20T10:39:34.158Z,26.30
2018-09-20T10:42:13.187Z,26.40
2018-09-20T10:44:53.226Z,26.40
2018-09-20T10:47:32.154Z,26.40
2018-09-20T10:50:10.381Z,26.40
2018-09-20T10:52:49.977Z,26.40
2018-09-20T10:55:29.702Z,26.50
2018-09-20T10:58:09.465Z,26.50
2018-09-20T11:00:47.724Z,26.50
2018-09-20T11:03:27.429Z,26.40
2018-09-20T11:06:07.118Z,26.50
2018-09-20T11:08:47.549Z,26.50
2018-09-20T11:11:27.840Z,26.60
2018-09-20T11:14:06.358Z,26.50
2018-09-20T11:16:46.574Z,26.50
2018-09-20T11:19:26.138Z,26.60
2018-09-20T11:22:05.362Z,26.60
2018-09-20T11:24:45.181Z,26.60
2018-09-20T11:27:24.818Z,26.70
2018-09-20T11:30:04.614Z,26.70
2018-09-20T11:32:44.378Z,26.70
2018-09-20T11:35:22.524Z,26.60
2018-09-20T11:37:58.103Z,26.60
2018-09-20T11:40:37.677Z,26.70
2018-09-20T11:43:18.900Z,26.70
2018-09-20T11:45:57.918Z,26.90
2018-09-20T11:48:38.149Z,26.90
2018-09-20T11:51:19.025Z,26.90
2018-09-20T11:53:58.661Z,26.90
2018-09-20T11:56:38.065Z,26.90
2018-09-20T11:59:17.214Z,26.90
2018-09-20T12:01:56.849Z,26.90
2018-09-20T12:04:36.514Z,26.90
2018-09-20T12:07:15.568Z,26.90
2018-09-20T12:09:55.290Z,27.00
2018-09-20T12:12:34.612Z,27.00
2018-09-20T12:15:12.635Z,27.10
2018-09-20T12:17:51.792Z,27.00
2018-09-20T12:20:31.226Z,26.90
2018-09-20T12:23:10.983Z,26.90
2018-09-20T12:25:50.571Z,26.90
2018-09-20T12:28:30.798Z,26.90
2018-09-20T12:31:10.410Z,26.90
2018-09-20T12:33:49.951Z,26.90
2018-09-20T12:36:22.263Z,26.90
2018-09-20T12:39:00.212Z,26.90
2018-09-20T12:41:40.070Z,26.90
2018-09-20T12:44:20.577Z,26.90
2018-09-20T12:46:59.805Z,26.90
2018-09-20T12:49:39.297Z,26.90
2018-09-20T12:52:18.616Z,26.90
2018-09-20T12:54:59.306Z,26.90
2018-09-20T12:57:38.868Z,26.90
2018-09-20T13:00:18.678Z,26.90
2018-09-20T13:02:58.191Z,26.90
2018-09-20T13:05:37.693Z,26.80
2018-09-20T13:08:16.969Z,26.80
2018-09-20T13:10:52.968Z,26.90
2018-09-20T13:13:33.236Z,26.90
2018-09-20T13:16:13.946Z,26.80
2018-09-20T13:18:53.623Z,26.80
2018-09-20T13:21:33.302Z,26.70
2018-09-20T13:24:13.745Z,26.70
2018-09-20T13:26:53.105Z,26.70
2018-09-20T13:29:33.927Z,26.70
2018-09-20T13:32:13.960Z,26.60
2018-09-20T13:34:50.975Z,26.60
2018-09-20T13:37:30.457Z,26.50
2018-09-20T13:40:06.579Z,26.50
2018-09-20T13:42:46.891Z,26.50
2018-09-20T13:45:27.147Z,26.50
2018-09-20T13:48:06.220Z,26.40
2018-09-20T13:50:44.495Z,26.40
2018-09-20T13:53:20.499Z,26.30
2018-09-20T13:55:55.738Z,26.30
2018-09-20T13:58:35.595Z,26.20
2018-09-20T14:01:16.053Z,26.30
2018-09-20T14:03:55.457Z,26.20
2018-09-20T14:06:35.310Z,26.20
2018-09-20T14:09:13.339Z,26.20
2018-09-20T14:11:52.701Z,26.20
2018-09-20T14:14:32.152Z,26.20
2018-09-20T14:17:13.207Z,26.20
2018-09-20T14:19:53.680Z,26.30
2018-09-20T14:22:33.129Z,26.20
2018-09-20T14:25:12.910Z,26.10
2018-09-20T14:28:54.701Z,26.10
2018-09-20T14:31:36.634Z,26.10
2018-09-20T14:34:16.265Z,26.00
2018-09-20T14:36:55.896Z,26.00
2018-09-20T14:39:37.918Z,26.00
2018-09-20T14:42:11.057Z,26.00
2018-09-20T14:44:50.711Z,26.00
2018-09-20T14:47:29.953Z,26.00
2018-09-20T14:50:13.584Z,25.90
2018-09-20T14:52:53.382Z,25.80
2018-09-20T14:55:30.129Z,25.90
2018-09-20T14:58:08.522Z,25.80
2018-09-20T15:00:48.133Z,25.80
2018-09-20T15:03:27.512Z,25.80
2018-09-20T15:06:05.959Z,25.70
2018-09-20T15:08:45.267Z,25.70
2018-09-20T15:11:17.127Z,25.70
2018-09-20T15:13:56.774Z,25.60
2018-09-20T15:16:36.695Z,25.60
2018-09-20T15:19:16.177Z,25.60
2018-09-20T15:21:55.714Z,25.50
2018-09-20T15:24:35.583Z,25.50
2018-09-20T15:27:14.961Z,25.50
2018-09-20T15:29:52.705Z,25.60
2018-09-20T15:32:31.712Z,25.50
2018-09-20T15:35:11.502Z,25.50
2018-09-20T15:37:55.010Z,25.50
2018-09-20T15:40:34.765Z,25.40
2018-09-20T15:43:14.129Z,25.40
2018-09-20T15:45:54.705Z,25.40
2018-09-20T15:48:35.463Z,25.30
2018-09-20T15:51:15.535Z,25.30
2018-09-20T15:53:54.898Z,25.30
2018-09-20T15:56:36.881Z,25.20
2018-09-20T15:59:16.270Z,25.20
2018-09-20T16:01:57.203Z,25.20
2018-09-20T16:04:29.433Z,25.10
2018-09-20T16:07:07.886Z,25.10
2018-09-20T16:09:47.309Z,25.00
2018-09-20T16:12:24.348Z,25.00
2018-09-20T16:15:05.481Z,24.90
2018-09-20T16:17:37.719Z,24.90
2018-09-20T16:20:18.045Z,24.90
2018-09-20T16:22:57.748Z,24.90
2018-09-20T16:25:37.228Z,24.90
2018-09-20T16:28:25.381Z,24.90
2018-09-20T16:31:14.564Z,24.70
2018-09-20T16:34:01.861Z,24.70
2018-09-20T16:36:48.437Z,24.70
2018-09-20T16:39:26.936Z,24.60
2018-09-20T16:42:07.746Z,24.60
2018-09-20T16:44:46.749Z,24.50
2018-09-20T16:47:26.422Z,24.50
2018-09-20T16:50:07.644Z,24.50
2018-09-20T16:52:43.494Z,24.50
2018-09-20T16:55:23.515Z,24.40
2018-09-20T16:58:03.651Z,24.40
2018-09-20T17:00:55.069Z,24.30
2018-09-20T17:03:47.323Z,24.30
2018-09-20T17:06:27.982Z,24.20
2018-09-20T17:09:09.204Z,24.20
2018-09-20T17:11:49.120Z,24.10
2018-09-20T17:14:30.284Z,24.00
2018-09-20T17:17:10.614Z,24.00
2018-09-20T17:19:52.189Z,23.90
2018-09-20T17:22:33.614Z,23.80
2018-09-20T17:25:12.947Z,23.70
2018-09-20T17:27:50.750Z,23.60
2018-09-20T17:30:32.012Z,23.50
2018-09-20T17:33:10.920Z,23.40
2018-09-20T17:35:52.298Z,23.30
2018-09-20T17:38:38.466Z,23.20
2018-09-20T17:41:24.733Z,23.10
2018-09-20T17:44:06.387Z,23.00
2018-09-20T17:46:47.374Z,22.90
2018-09-20T17:49:29.835Z,22.80
2018-09-20T17:52:15.258Z,22.80
2018-09-20T17:54:53.488Z,22.70
2018-09-20T17:57:34.561Z,22.60
2018-09-20T18:00:14.695Z,22.50
2018-09-20T18:02:55.250Z,22.40
2018-09-20T18:05:51.805Z,22.40
2018-09-20T18:08:30.818Z,22.30
2018-09-20T18:11:04.299Z,22.20
2018-09-20T18:13:46.449Z,22.20
2018-09-20T18:16:20.645Z,22.10
2018-09-20T18:18:56.403Z,22.10
2018-09-20T18:21:33.615Z,22.00
2018-09-20T18:24:15.389Z,22.00
2018-09-20T18:26:56.757Z,22.00
2018-09-20T18:29:37.654Z,22.00
2018-09-20T18:32:20.802Z,22.00
2018-09-20T18:35:01.483Z,22.00
2018-09-20T18:37:45.091Z,21.90
2018-09-20T18:40:33.569Z,21.90
2018-09-20T18:43:16.572Z,21.90
2018-09-20T18:45:56.895Z,21.90
2018-09-20T18:48:36.405Z,21.80
2018-09-20T18:51:33.240Z,21.80
2018-09-20T18:54:06.890Z,21.70
2018-09-20T18:57:07.560Z,21.70
2018-09-20T18:59:43.020Z,21.60
2018-09-20T19:02:25.020Z,21.50
2018-09-20T19:04:58.090Z,21.50
2018-09-20T19:07:39.979Z,21.40
2018-09-20T19:10:13.572Z,21.30
2018-09-20T19:12:51.564Z,21.30
2018-09-20T19:15:22.691Z,21.20
2018-09-20T19:17:57.279Z,21.10
2018-09-20T19:26:14.410Z,21.00
2018-09-20T19:28:48.326Z,21.00
2018-09-20T19:31:20.350Z,20.90
2018-09-20T19:33:52.073Z,20.90
2018-09-20T19:36:25.371Z,20.90
2018-09-20T19:38:56.152Z,20.90
2018-09-20T19:41:30.080Z,20.90
2018-09-20T19:44:03.300Z,20.90
2018-09-20T19:46:38.121Z,20.90
2018-09-20T19:49:09.950Z,20.90
2018-09-20T19:51:49.801Z,20.90
2018-09-20T19:54:22.291Z,20.80
2018-09-20T19:56:58.080Z,20.80
2018-09-20T20:04:37.522Z,20.70
2018-09-20T20:07:15.369Z,20.60
2018-09-20T20:09:50.529Z,20.60
2018-09-20T20:12:22.711Z,20.50
2018-09-20T20:15:17.858Z,20.40
2018-09-20T20:17:51.848Z,20.40
2018-09-20T20:20:24.874Z,20.40
2018-09-20T20:23:04.715Z,20.40
2018-09-20T20:25:39.598Z,20.40
2018-09-20T20:28:13.821Z,20.40
2018-09-20T20:30:47.768Z,20.40
2018-09-20T20:33:23.109Z,20.40
2018-09-20T20:35:58.435Z,20.40
2018-09-20T20:38:32.798Z,20.40
2018-09-20T20:41:07.790Z,20.30
2018-09-20T20:43:44.932Z,20.30
2018-09-20T20:46:16.959Z,20.30
2018-09-20T20:49:57.589Z,20.30
2018-09-20T20:52:30.279Z,20.20
2018-09-20T20:55:03.985Z,20.20
2018-09-20T20:57:55.520Z,20.10
2018-09-20T21:00:30.291Z,20.10
2018-09-20T21:03:03.526Z,20.10
2018-09-20T21:05:37.498Z,20.10
2018-09-20T21:08:10.718Z,20.10
2018-09-20T21:10:43.228Z,20.00
2018-09-20T21:13:17.590Z,20.00
2018-09-20T21:15:49.959Z,19.90
2018-09-20T21:18:22.829Z,19.90
2018-09-20T21:20:54.639Z,19.90
2018-09-20T21:23:33.010Z,19.90
2018-09-20T21:26:05.424Z,19.90
2018-09-20T21:28:37.367Z,19.90
2018-09-20T21:31:10.811Z,19.90
2018-09-20T21:33:42.559Z,19.80
2018-09-20T21:36:14.293Z,19.80
2018-09-20T21:38:47.915Z,19.80
2018-09-20T21:41:21.251Z,19.80
2018-09-20T21:43:57.429Z,19.80
2018-09-20T21:46:31.492Z,19.80
2018-09-20T21:49:03.644Z,19.80
2018-09-20T21:51:37.481Z,19.80
2018-09-20T21:54:09.747Z,19.80
2018-09-20T21:56:42.963Z,19.80
2018-09-20T21:59:16.764Z,19.70
2018-09-20T22:01:54.790Z,19.60
2018-09-20T22:04:29.434Z,19.60
2018-09-20T22:07:03.572Z,19.60
2018-09-20T22:09:37.300Z,19.60
2018-09-20T22:12:12.060Z,19.70
2018-09-20T22:14:48.000Z,19.60
2018-09-20T22:17:20.748Z,19.60
2018-09-20T22:19:54.448Z,19.60
2018-09-20T22:22:26.499Z,19.50
2018-09-20T22:24:59.760Z,19.40
2018-09-20T22:27:32.398Z,19.30
2018-09-20T22:30:08.350Z,19.30
2018-09-20T22:32:41.776Z,19.30
2018-09-20T22:35:14.330Z,19.30
2018-09-20T22:37:47.790Z,19.20
2018-09-20T22:40:21.530Z,19.20
2018-09-20T22:42:52.499Z,19.20
2018-09-20T22:45:23.370Z,19.20
2018-09-20T22:47:53.280Z,19.20
2018-09-20T22:50:25.271Z,19.20
2018-09-20T22:52:56.829Z,19.20
2018-09-20T22:55:28.619Z,19.30
2018-09-20T22:57:59.866Z,19.30
2018-09-20T23:00:31.470Z,19.30
2018-09-20T23:03:02.520Z,19.30
2018-09-20T23:05:32.786Z,19.30
2018-09-20T23:08:04.334Z,19.30
2018-09-20T23:10:36.004Z,19.30
2018-09-20T23:13:07.144Z,19.20
2018-09-20T23:15:38.273Z,19.20
2018-09-20T23:18:09.767Z,19.20
2018-09-20T23:20:41.564Z,19.10
2018-09-20T23:23:12.739Z,19.10
2018-09-20T23:25:43.793Z,19.10
2018-09-20T23:28:14.794Z,19.10
2018-09-20T23:30:46.433Z,19.10
2018-09-20T23:33:16.916Z,19.10
2018-09-20T23:35:47.514Z,19.10
2018-09-20T23:38:18.562Z,19.10
2018-09-20T23:40:50.050Z,19.10
2018-09-20T23:45:56.539Z,19.00
2018-09-20T23:48:27.469Z,19.00
2018-09-20T23:50:59.279Z,19.10
2018-09-20T23:53:30.449Z,19.10
2018-09-20T23:56:01.620Z,19.20
2018-09-20T23:58:33.249Z,19.10
